Terminal Aerodrome Forecast
Issued by NWS

Home | Current Version | Previous Version | Text Only | Print | Product List | Glossary On
Versions: 1 2 3 4 5 6 7 8 9 10 11 12
632
FTAK31 PAJN 110537
TAFAWG
TAF
PAWG 110537Z 1106/1206 10010G20KT P6SM -RA BKN035 OVC050
      WS020/14045KT
     FM110900 12015G25KT 5SM RA BR BKN030 OVC040 WS020/14045KT
     FM111500 12007KT 3SM BR VCSH BKN040 OVC060
     FM111800 12007KT P6SM BKN050 OVC070
     FM120000 12006KT 6SM -RA BR OVC030
      AMD LTD TO CLD VIS AND WIND 1106/1115=

USA.gov is the U.S. government's official web portal to all federal, state and local government web resources and services.